Time;durP1;ratioP1;P1;durP2;ratioP2;P2;SDS_P1;SDS_P2;PMS_P1;PMS_P2;Temp;Humidity;BMP_temperature;BMP_pressure;BME280_temperature;BME280_humidity;BME280_pressure;Samples;Min_cycle;Max_cycle;Signal;HPM_P1;HPM_P2
2022/12/31 00:00:19;;;;;;;204.38;78.20;;;;;;;;;;6227388;28;20168;-60
2022/12/31 00:03:41;;;;;;;195.48;77.07;;;;;;;;;;6222860;28;20068;-60
2022/12/31 00:06:41;;;;;;;215.10;81.00;;;;;;;;;;6226491;28;20458;-60
2022/12/31 00:09:42;;;;;;;200.43;77.63;;;;;;;;;;6227736;28;20062;-60
2022/12/31 00:12:42;;;;;;;184.38;72.90;;;;;;;;;;6221227;28;21046;-60
2022/12/31 00:15:43;;;;;;;178.05;70.00;;;;;;;;;;6224858;28;20054;-60
2022/12/31 00:18:46;;;;;;;160.15;62.65;;;;;;;;;;6226864;28;20434;-60
2022/12/31 00:21:47;;;;;;;168.32;66.72;;;;;;;;;;6223040;28;20049;-60
2022/12/31 00:24:47;;;;;;;165.95;67.88;;;;;;;;;;6226636;28;20166;-60
2022/12/31 00:27:48;;;;;;;180.40;71.32;;;;;;;;;;6227878;28;20048;-60
2022/12/31 00:30:49;;;;;;;191.63;74.45;;;;;;;;;;6225404;28;20057;-60
2022/12/31 00:33:49;;;;;;;191.55;75.70;;;;;;;;;;6224624;28;20061;-60
2022/12/31 00:36:51;;;;;;;189.85;76.65;;;;;;;;;;6229396;28;20053;-61
2022/12/31 00:39:52;;;;;;;190.45;70.13;;;;;;;;;;6227508;28;20721;-61
2022/12/31 00:42:52;;;;;;;181.10;72.40;;;;;;;;;;6222194;28;20053;-60
2022/12/31 00:45:53;;;;;;;175.05;67.93;;;;;;;;;;6224158;28;20045;-60
2022/12/31 00:48:54;;;;;;;178.95;72.40;;;;;;;;;;6225960;28;20455;-61
2022/12/31 00:51:55;;;;;;;175.27;70.63;;;;;;;;;;6222894;28;20471;-60
2022/12/31 00:54:56;;;;;;;186.05;72.65;;;;;;;;;;6227213;28;20098;-60
2022/12/31 00:57:57;;;;;;;180.88;73.15;;;;;;;;;;6226669;28;20126;-60
2022/12/31 01:00:58;;;;;;;187.73;77.00;;;;;;;;;;6226797;28;20046;-61
2022/12/31 01:04:04;;;;;;;173.30;72.63;;;;;;;;;;6254359;28;20099;-61
2022/12/31 01:07:05;;;;;;;173.43;69.35;;;;;;;;;;6257770;28;20048;-61
2022/12/31 01:10:06;;;;;;;173.45;66.32;;;;;;;;;;6265797;28;20087;-69
2022/12/31 01:13:07;;;;;;;170.35;69.60;;;;;;;;;;6260655;28;20163;-68
2022/12/31 01:16:09;;;;;;;180.30;73.43;;;;;;;;;;6252582;28;20041;-61
2022/12/31 01:19:12;;;;;;;183.35;70.85;;;;;;;;;;6259418;28;20049;-69
2022/12/31 01:22:13;;;;;;;166.07;69.30;;;;;;;;;;6252985;28;20053;-61
2022/12/31 01:25:14;;;;;;;188.23;75.32;;;;;;;;;;6263498;28;20813;-71
2022/12/31 01:28:14;;;;;;;174.55;70.38;;;;;;;;;;6253215;28;20052;-61
2022/12/31 01:31:18;;;;;;;174.95;71.05;;;;;;;;;;6243906;28;20623;-67
2022/12/31 01:34:18;;;;;;;170.15;68.38;;;;;;;;;;6250788;28;20519;-61
2022/12/31 01:37:19;;;;;;;180.93;77.47;;;;;;;;;;6260856;28;20156;-61
2022/12/31 01:40:19;;;;;;;178.77;72.82;;;;;;;;;;6241708;28;20053;-72
2022/12/31 01:43:20;;;;;;;167.63;67.20;;;;;;;;;;6243669;28;20041;-61
2022/12/31 01:46:40;;;;;;;153.95;58.95;;;;;;;;;;6239708;28;20049;-61
2022/12/31 01:49:49;;;;;;;170.05;64.68;;;;;;;;;;6238820;28;20060;-61
2022/12/31 01:52:55;;;;;;;179.30;68.45;;;;;;;;;;6253103;28;20484;-61
2022/12/31 01:55:59;;;;;;;162.57;66.80;;;;;;;;;;6253966;28;20052;-61
2022/12/31 01:59:04;;;;;;;159.15;60.67;;;;;;;;;;6242384;28;20064;-61
2022/12/31 02:02:05;;;;;;;133.45;48.97;;;;;;;;;;6239989;28;20052;-63
2022/12/31 02:05:15;;;;;;;117.13;45.25;;;;;;;;;;6241374;28;20046;-62
2022/12/31 02:08:16;;;;;;;103.78;40.85;;;;;;;;;;6237980;28;20058;-61
2022/12/31 02:11:24;;;;;;;94.32;37.88;;;;;;;;;;6234750;28;21633;-61
2022/12/31 02:14:32;;;;;;;107.53;40.58;;;;;;;;;;6242669;28;20049;-61
2022/12/31 02:17:48;;;;;;;92.25;36.92;;;;;;;;;;6235957;28;20045;-72
2022/12/31 02:21:21;;;;;;;76.30;30.23;;;;;;;;;;6241485;28;20172;-61
2022/12/31 02:24:58;;;;;;;69.53;28.88;;;;;;;;;;6240824;28;20132;-60
2022/12/31 02:28:07;;;;;;;67.65;27.73;;;;;;;;;;6244821;28;20084;-61
2022/12/31 02:31:12;;;;;;;70.90;26.65;;;;;;;;;;6243995;28;20091;-61
2022/12/31 02:34:23;;;;;;;67.40;28.08;;;;;;;;;;6238453;28;20518;-61
2022/12/31 02:37:26;;;;;;;70.47;28.63;;;;;;;;;;6248230;28;20159;-62
2022/12/31 02:40:27;;;;;;;73.13;29.80;;;;;;;;;;6243513;28;20049;-61
2022/12/31 02:43:28;;;;;;;72.07;28.67;;;;;;;;;;6246386;28;20080;-61
2022/12/31 02:46:42;;;;;;;62.72;26.05;;;;;;;;;;6244419;28;20534;-61
2022/12/31 02:49:49;;;;;;;69.88;28.48;;;;;;;;;;6244738;28;20115;-60
2022/12/31 02:53:14;;;;;;;74.78;29.17;;;;;;;;;;6241797;28;20045;-61
2022/12/31 02:56:23;;;;;;;70.95;28.90;;;;;;;;;;6242957;28;20045;-61
2022/12/31 03:02:58;;;;;;;69.28;25.80;;;;;;;;;;6243637;28;20094;-61
2022/12/31 03:06:01;;;;;;;62.15;25.10;;;;;;;;;;6245551;28;20049;-60
2022/12/31 03:09:11;;;;;;;61.45;23.77;;;;;;;;;;6243180;28;20155;-60
2022/12/31 03:15:33;;;;;;;59.35;24.13;;;;;;;;;;6243188;28;20044;-60
2022/12/31 03:28:35;;;;;;;57.47;22.30;;;;;;;;;;6238773;28;21628;-60
2022/12/31 03:31:36;;;;;;;47.47;19.40;;;;;;;;;;6243571;28;20055;-60
2022/12/31 03:34:36;;;;;;;51.17;19.75;;;;;;;;;;6243973;28;20049;-60
2022/12/31 03:37:38;;;;;;;51.60;19.30;;;;;;;;;;6243132;28;20056;-66
2022/12/31 03:40:42;;;;;;;44.22;18.85;;;;;;;;;;6248515;28;20073;-60
2022/12/31 03:43:43;;;;;;;43.90;18.35;;;;;;;;;;6242486;28;20053;-61
2022/12/31 03:46:43;;;;;;;46.08;16.45;;;;;;;;;;6236911;28;20056;-59
2022/12/31 03:49:44;;;;;;;48.45;17.70;;;;;;;;;;6239621;28;20085;-69
2022/12/31 03:52:45;;;;;;;48.25;20.35;;;;;;;;;;6243220;28;20404;-60
2022/12/31 03:55:52;;;;;;;38.85;17.10;;;;;;;;;;6244230;28;20053;-60
2022/12/31 03:58:52;;;;;;;44.00;17.48;;;;;;;;;;6244684;28;20041;-64
2022/12/31 04:01:53;;;;;;;41.63;17.80;;;;;;;;;;6242770;28;20069;-60
2022/12/31 04:04:54;;;;;;;44.05;18.25;;;;;;;;;;6243301;28;20040;-59
2022/12/31 04:07:55;;;;;;;48.10;20.05;;;;;;;;;;6241875;28;20368;-60
2022/12/31 04:10:55;;;;;;;50.63;20.83;;;;;;;;;;6242797;28;20045;-61
2022/12/31 04:13:58;;;;;;;50.08;20.88;;;;;;;;;;6245599;28;20053;-60
2022/12/31 04:16:58;;;;;;;47.05;19.08;;;;;;;;;;6247070;28;20136;-60
2022/12/31 04:19:59;;;;;;;50.92;20.85;;;;;;;;;;6246102;28;20417;-60
2022/12/31 04:22:59;;;;;;;47.17;18.65;;;;;;;;;;6242917;28;20540;-60
2022/12/31 04:26:00;;;;;;;45.80;19.10;;;;;;;;;;6267152;28;20126;-60
2022/12/31 04:29:00;;;;;;;41.60;17.23;;;;;;;;;;6249104;28;20054;-60
2022/12/31 04:32:03;;;;;;;41.58;15.73;;;;;;;;;;6244404;28;20102;-60
2022/12/31 04:35:04;;;;;;;39.72;16.23;;;;;;;;;;6242734;28;20586;-60
2022/12/31 04:38:05;;;;;;;40.47;15.90;;;;;;;;;;6241265;28;20874;-59
2022/12/31 04:41:17;;;;;;;38.70;15.40;;;;;;;;;;6242111;28;20042;-61
2022/12/31 04:44:19;;;;;;;43.80;16.35;;;;;;;;;;6240693;28;20399;-61
2022/12/31 04:47:19;;;;;;;38.30;15.90;;;;;;;;;;6245043;28;20049;-60
2022/12/31 04:50:20;;;;;;;40.00;15.45;;;;;;;;;;6243746;28;20045;-60
2022/12/31 04:53:21;;;;;;;36.00;16.27;;;;;;;;;;6244426;28;20045;-60
2022/12/31 04:56:23;;;;;;;32.27;14.27;;;;;;;;;;6252012;28;20132;-60
2022/12/31 04:59:23;;;;;;;37.08;15.50;;;;;;;;;;6244433;28;20299;-60
2022/12/31 05:02:24;;;;;;;40.47;18.45;;;;;;;;;;6241605;28;20046;-60
2022/12/31 05:05:25;;;;;;;38.33;16.17;;;;;;;;;;6242366;28;20468;-59
2022/12/31 05:08:25;;;;;;;36.38;14.75;;;;;;;;;;6243510;28;20045;-60
2022/12/31 05:11:26;;;;;;;35.67;14.80;;;;;;;;;;6237375;28;20045;-60
2022/12/31 05:14:26;;;;;;;33.05;14.02;;;;;;;;;;6235765;28;20160;-60
2022/12/31 05:17:27;;;;;;;32.10;15.07;;;;;;;;;;6242669;28;20041;-64
2022/12/31 05:20:28;;;;;;;32.13;13.50;;;;;;;;;;6242316;28;20080;-60
2022/12/31 05:23:28;;;;;;;34.72;13.55;;;;;;;;;;6240862;28;20120;-59
2022/12/31 05:26:29;;;;;;;32.30;13.55;;;;;;;;;;6241345;28;20048;-60
2022/12/31 05:29:29;;;;;;;33.25;14.18;;;;;;;;;;6244987;28;20340;-60
2022/12/31 05:32:30;;;;;;;40.38;17.98;;;;;;;;;;6240385;28;20033;-59
2022/12/31 05:35:31;;;;;;;33.20;14.07;;;;;;;;;;6243826;28;20071;-60
2022/12/31 05:38:32;;;;;;;32.55;14.70;;;;;;;;;;6241648;28;20053;-60
2022/12/31 05:41:32;;;;;;;36.28;15.52;;;;;;;;;;6242487;28;20037;-60
2022/12/31 05:44:33;;;;;;;32.28;15.15;;;;;;;;;;6251071;28;20076;-60
2022/12/31 05:47:33;;;;;;;33.25;13.40;;;;;;;;;;6244812;28;20527;-59
2022/12/31 05:50:34;;;;;;;33.88;12.98;;;;;;;;;;6238545;28;20147;-60
2022/12/31 05:53:35;;;;;;;32.78;13.27;;;;;;;;;;6242903;28;20052;-60
2022/12/31 05:56:35;;;;;;;28.35;12.98;;;;;;;;;;6241047;28;20098;-60
2022/12/31 05:59:36;;;;;;;28.70;12.75;;;;;;;;;;6240939;28;20054;-60
2022/12/31 06:02:37;;;;;;;33.08;13.35;;;;;;;;;;6228153;28;20801;-59
2022/12/31 06:05:40;;;;;;;31.02;13.32;;;;;;;;;;6243905;28;20048;-60
2022/12/31 06:08:41;;;;;;;31.75;14.07;;;;;;;;;;6239914;28;20049;-60
2022/12/31 06:11:43;;;;;;;34.95;14.93;;;;;;;;;;6245371;28;20439;-60
2022/12/31 06:14:43;;;;;;;40.50;20.40;;;;;;;;;;6237834;28;20099;-60
2022/12/31 06:17:44;;;;;;;37.30;15.35;;;;;;;;;;6248785;28;20489;-60
2022/12/31 06:20:44;;;;;;;37.95;15.25;;;;;;;;;;6245440;28;20549;-60
2022/12/31 06:23:46;;;;;;;37.15;15.20;;;;;;;;;;6249162;28;20064;-60
2022/12/31 06:26:47;;;;;;;34.33;14.75;;;;;;;;;;6246729;28;20065;-60
2022/12/31 06:29:47;;;;;;;40.15;16.67;;;;;;;;;;6246786;28;20409;-60
2022/12/31 06:32:48;;;;;;;39.53;17.98;;;;;;;;;;6246109;28;20053;-60
2022/12/31 06:35:54;;;;;;;39.53;16.35;;;;;;;;;;6247920;28;20480;-60
2022/12/31 06:38:55;;;;;;;34.60;14.63;;;;;;;;;;6247093;28;20045;-60
2022/12/31 06:41:55;;;;;;;36.60;15.60;;;;;;;;;;6247169;28;20041;-60
2022/12/31 06:44:57;;;;;;;34.40;16.25;;;;;;;;;;6242162;28;20259;-60
2022/12/31 06:47:58;;;;;;;34.33;14.85;;;;;;;;;;6246028;28;20053;-60
2022/12/31 06:51:09;;;;;;;31.65;14.27;;;;;;;;;;6248090;28;20514;-60
2022/12/31 06:54:09;;;;;;;29.08;12.95;;;;;;;;;;6244673;28;20045;-59
2022/12/31 06:57:11;;;;;;;40.00;13.95;;;;;;;;;;6244950;28;20075;-63
2022/12/31 07:00:12;;;;;;;32.30;13.20;;;;;;;;;;6242473;28;20049;-61
2022/12/31 07:03:45;;;;;;;30.38;13.65;;;;;;;;;;6245174;28;20090;-60
2022/12/31 07:06:54;;;;;;;30.13;12.52;;;;;;;;;;6245863;28;20507;-60
2022/12/31 07:10:10;;;;;;;28.45;12.80;;;;;;;;;;6244469;28;20128;-60
2022/12/31 07:13:44;;;;;;;33.55;13.45;;;;;;;;;;6244308;28;20056;-60
2022/12/31 07:16:53;;;;;;;28.50;11.05;;;;;;;;;;6240591;28;20037;-62
2022/12/31 07:20:03;;;;;;;27.95;11.82;;;;;;;;;;6246037;28;20068;-60
2022/12/31 07:23:06;;;;;;;29.85;11.77;;;;;;;;;;6244239;28;20083;-59
2022/12/31 07:26:42;;;;;;;23.10;11.18;;;;;;;;;;6244414;28;20044;-63
2022/12/31 07:29:51;;;;;;;21.85;9.85;;;;;;;;;;6260562;28;20491;-60
2022/12/31 07:33:16;;;;;;;28.00;11.48;;;;;;;;;;6267363;28;20061;-60
2022/12/31 07:36:30;;;;;;;20.58;9.25;;;;;;;;;;6260893;28;20472;-62
2022/12/31 07:39:41;;;;;;;28.08;12.25;;;;;;;;;;6264999;28;20041;-64
2022/12/31 07:42:48;;;;;;;31.23;14.02;;;;;;;;;;6268390;28;20045;-62
2022/12/31 07:46:08;;;;;;;32.58;13.77;;;;;;;;;;6266919;28;20045;-63
2022/12/31 07:49:13;;;;;;;34.35;12.50;;;;;;;;;;6268663;28;20052;-61
2022/12/31 07:52:13;;;;;;;38.35;13.65;;;;;;;;;;6269417;28;20668;-60
2022/12/31 07:55:14;;;;;;;39.53;14.82;;;;;;;;;;6256720;28;20044;-61
2022/12/31 07:58:23;;;;;;;25.77;10.05;;;;;;;;;;6268132;28;20057;-60
2022/12/31 08:01:31;;;;;;;18.88;8.27;;;;;;;;;;6269051;28;20462;-60
2022/12/31 08:05:06;;;;;;;22.70;8.95;;;;;;;;;;6241831;28;20084;-66
2022/12/31 08:08:38;;;;;;;20.30;9.40;;;;;;;;;;6247376;28;20060;-64
2022/12/31 08:11:51;;;;;;;18.60;7.47;;;;;;;;;;6236750;28;20056;-66
2022/12/31 08:14:51;;;;;;;20.48;9.20;;;;;;;;;;6255384;28;20305;-65
2022/12/31 08:17:52;;;;;;;20.67;9.57;;;;;;;;;;6255338;28;20056;-74
2022/12/31 08:21:15;;;;;;;16.80;7.43;;;;;;;;;;6263881;28;20076;-67
2022/12/31 08:24:39;;;;;;;15.32;6.07;;;;;;;;;;6260919;28;20467;-64
2022/12/31 08:28:04;;;;;;;13.13;5.72;;;;;;;;;;6259804;28;20052;-64
2022/12/31 08:31:34;;;;;;;10.65;4.50;;;;;;;;;;6259496;28;20042;-62
2022/12/31 08:34:46;;;;;;;9.90;4.53;;;;;;;;;;6260528;28;20057;-64
2022/12/31 08:37:57;;;;;;;9.82;4.15;;;;;;;;;;6261790;28;20051;-63
2022/12/31 08:41:22;;;;;;;8.18;3.38;;;;;;;;;;6240752;28;20068;-63
2022/12/31 08:45:07;;;;;;;9.82;3.80;;;;;;;;;;6267577;28;20049;-61
2022/12/31 08:48:38;;;;;;;12.02;4.55;;;;;;;;;;6178827;28;20141;-65
2022/12/31 08:51:39;;;;;;;10.65;4.75;;;;;;;;;;6195453;28;20053;-61
2022/12/31 08:54:40;;;;;;;7.68;3.47;;;;;;;;;;6267653;28;20077;-66
2022/12/31 08:57:53;;;;;;;7.45;3.83;;;;;;;;;;6265045;28;20602;-64
2022/12/31 09:00:57;;;;;;;8.25;3.28;;;;;;;;;;6252202;28;20079;-62
2022/12/31 09:04:03;;;;;;;6.80;2.90;;;;;;;;;;6265576;28;20060;-61
2022/12/31 09:07:05;;;;;;;7.60;3.03;;;;;;;;;;6265835;28;20051;-61
2022/12/31 09:10:14;;;;;;;13.88;5.38;;;;;;;;;;6245698;28;20053;-62
2022/12/31 09:13:55;;;;;;;6.72;3.22;;;;;;;;;;6243091;28;20042;-62
2022/12/31 09:17:14;;;;;;;7.85;3.58;;;;;;;;;;6245861;28;20049;-61
2022/12/31 09:20:22;;;;;;;7.75;3.80;;;;;;;;;;6241661;28;20084;-60
2022/12/31 09:23:23;;;;;;;10.60;4.03;;;;;;;;;;6240407;28;20052;-61
2022/12/31 09:26:36;;;;;;;7.15;3.15;;;;;;;;;;6243043;28;20095;-61
2022/12/31 09:30:01;;;;;;;8.30;3.75;;;;;;;;;;6239211;28;20057;-62
2022/12/31 09:33:18;;;;;;;6.43;2.92;;;;;;;;;;6243029;28;20140;-63
2022/12/31 09:36:30;;;;;;;8.68;4.07;;;;;;;;;;6239894;28;20103;-63
2022/12/31 09:39:42;;;;;;;8.60;3.65;;;;;;;;;;6256611;28;20132;-63
2022/12/31 09:43:27;;;;;;;6.30;2.95;;;;;;;;;;6266197;28;20086;-67
2022/12/31 09:46:37;;;;;;;7.22;3.33;;;;;;;;;;6251067;28;20079;-63
2022/12/31 09:50:14;;;;;;;12.38;5.97;;;;;;;;;;6269668;28;20065;-63
2022/12/31 09:53:15;;;;;;;10.43;4.82;;;;;;;;;;6269646;28;20425;-63
2022/12/31 09:56:24;;;;;;;7.72;3.55;;;;;;;;;;6270161;28;20049;-64
2022/12/31 09:59:37;;;;;;;9.50;3.80;;;;;;;;;;6270350;28;20137;-62
2022/12/31 10:03:15;;;;;;;7.13;3.72;;;;;;;;;;6261141;28;20530;-64
2022/12/31 10:06:31;;;;;;;9.98;3.97;;;;;;;;;;6230433;28;20458;-64
2022/12/31 10:09:45;;;;;;;9.48;4.07;;;;;;;;;;6229664;28;20497;-62
2022/12/31 10:12:54;;;;;;;7.15;3.58;;;;;;;;;;6229198;28;21073;-62
2022/12/31 10:16:04;;;;;;;9.23;4.10;;;;;;;;;;6230491;28;20049;-62
2022/12/31 10:19:19;;;;;;;7.38;3.13;;;;;;;;;;6230774;28;20053;-62
2022/12/31 10:22:55;;;;;;;8.00;3.63;;;;;;;;;;6229368;28;20060;-62
2022/12/31 10:26:14;;;;;;;8.70;3.50;;;;;;;;;;6230890;28;20071;-62
2022/12/31 10:29:56;;;;;;;8.98;4.05;;;;;;;;;;6231907;28;20045;-67
2022/12/31 10:33:17;;;;;;;8.48;3.70;;;;;;;;;;6229725;28;20596;-63
2022/12/31 10:36:27;;;;;;;6.93;3.67;;;;;;;;;;6231920;28;20057;-65
2022/12/31 10:39:38;;;;;;;9.00;3.72;;;;;;;;;;6229860;28;20411;-68
2022/12/31 10:42:58;;;;;;;8.80;3.75;;;;;;;;;;6226038;28;20084;-64
2022/12/31 10:46:20;;;;;;;8.85;4.10;;;;;;;;;;6229372;28;20048;-65
2022/12/31 10:49:58;;;;;;;9.00;3.80;;;;;;;;;;6230281;28;20076;-69
2022/12/31 10:53:24;;;;;;;7.82;3.65;;;;;;;;;;6227888;28;20088;-63
2022/12/31 10:56:53;;;;;;;8.55;3.60;;;;;;;;;;6227264;28;20133;-63
2022/12/31 11:00:20;;;;;;;8.32;3.67;;;;;;;;;;6233448;28;20057;-66
2022/12/31 11:03:42;;;;;;;9.73;3.97;;;;;;;;;;6228519;28;20072;-62
2022/12/31 11:07:09;;;;;;;14.27;5.22;;;;;;;;;;6230486;28;21397;-65
2022/12/31 11:11:17;;;;;;;9.88;3.90;;;;;;;;;;6229534;28;20095;-62
2022/12/31 11:14:30;;;;;;;10.38;3.90;;;;;;;;;;6164354;28;20424;-67
2022/12/31 11:17:46;;;;;;;14.98;5.00;;;;;;;;;;6237744;28;20110;-66
2022/12/31 11:21:05;;;;;;;12.00;4.65;;;;;;;;;;6235576;28;20057;-63
2022/12/31 11:24:41;;;;;;;11.05;4.15;;;;;;;;;;6232312;28;20105;-62
2022/12/31 11:27:45;;;;;;;11.85;4.72;;;;;;;;;;6229766;28;20050;-63
2022/12/31 11:31:03;;;;;;;8.07;3.20;;;;;;;;;;6229773;28;20061;-66
2022/12/31 11:34:24;;;;;;;9.82;5.03;;;;;;;;;;6229688;28;20585;-64
2022/12/31 11:37:57;;;;;;;11.77;5.10;;;;;;;;;;6236537;28;20053;-63
2022/12/31 11:41:23;;;;;;;13.32;6.30;;;;;;;;;;6230347;28;20071;-62
2022/12/31 11:44:52;;;;;;;17.95;11.52;;;;;;;;;;6225965;28;20041;-62
2022/12/31 11:48:11;;;;;;;17.38;10.68;;;;;;;;;;6228257;28;20542;-63
2022/12/31 11:51:26;;;;;;;9.75;4.95;;;;;;;;;;6230255;28;21176;-62
2022/12/31 11:55:09;;;;;;;8.75;3.90;;;;;;;;;;6226491;28;20730;-64
2022/12/31 11:58:19;;;;;;;8.55;3.78;;;;;;;;;;6229531;28;20137;-63
2022/12/31 12:01:48;;;;;;;10.63;4.70;;;;;;;;;;6227210;28;20049;-62
2022/12/31 12:04:49;;;;;;;11.57;5.45;;;;;;;;;;6225592;28;20152;-62
2022/12/31 12:07:52;;;;;;;11.87;4.83;;;;;;;;;;6228825;28;20110;-67
2022/12/31 12:11:05;;;;;;;11.48;5.18;;;;;;;;;;6227202;28;20158;-67
2022/12/31 12:14:31;;;;;;;10.90;4.70;;;;;;;;;;6223044;28;20411;-64
2022/12/31 12:17:33;;;;;;;18.85;6.90;;;;;;;;;;6229913;28;20056;-64
2022/12/31 12:20:39;;;;;;;12.25;4.88;;;;;;;;;;6230360;28;20053;-63
2022/12/31 12:23:41;;;;;;;17.58;7.40;;;;;;;;;;6224165;28;20529;-63
2022/12/31 12:26:44;;;;;;;23.90;7.85;;;;;;;;;;6225532;28;20525;-66
2022/12/31 12:29:46;;;;;;;13.10;4.93;;;;;;;;;;6227524;28;20840;-64
2022/12/31 12:32:53;;;;;;;;;;;;;;;;;;6223878;28;20057;-64
2022/12/31 12:36:06;;;;;;;15.10;5.78;;;;;;;;;;6226167;28;19970;-64
2022/12/31 12:39:19;;;;;;;16.65;6.05;;;;;;;;;;6225863;28;20060;-64
2022/12/31 12:42:19;;;;;;;;;;;;;;;;;;6229978;28;20053;-65
2022/12/31 12:45:23;;;;;;;19.33;6.28;;;;;;;;;;6230032;28;19929;-66
2022/12/31 12:48:40;;;;;;;11.13;4.45;;;;;;;;;;6231120;28;20045;-64
2022/12/31 12:51:44;;;;;;;10.77;4.35;;;;;;;;;;6229642;28;20140;-64
2022/12/31 12:55:13;;;;;;;11.13;4.70;;;;;;;;;;6221972;28;20057;-64
2022/12/31 12:58:23;;;;;;;7.68;3.35;;;;;;;;;;6232710;28;20049;-65
2022/12/31 13:01:36;;;;;;;8.32;3.88;;;;;;;;;;6232464;28;20597;-65
2022/12/31 13:04:45;;;;;;;11.25;4.65;;;;;;;;;;6226435;28;20063;-66
2022/12/31 13:08:06;;;;;;;13.27;5.03;;;;;;;;;;6227017;28;20057;-67
2022/12/31 13:11:47;;;;;;;9.63;3.70;;;;;;;;;;6227341;28;20524;-67
2022/12/31 13:15:15;;;;;;;8.23;3.53;;;;;;;;;;6221198;28;20590;-67
2022/12/31 13:18:41;;;;;;;7.80;3.75;;;;;;;;;;6227374;28;20534;-65
2022/12/31 13:22:00;;;;;;;7.63;3.30;;;;;;;;;;6229066;28;21199;-65
2022/12/31 13:25:37;;;;;;;8.90;4.05;;;;;;;;;;6223660;28;20056;-67
2022/12/31 13:28:41;;;;;;;9.20;3.22;;;;;;;;;;6227641;28;20488;-64
2022/12/31 13:31:42;;;;;;;9.25;3.97;;;;;;;;;;6226804;28;20045;-65
2022/12/31 13:34:47;;;;;;;10.00;4.70;;;;;;;;;;6224129;28;20061;-66
2022/12/31 13:37:52;;;;;;;8.77;4.88;;;;;;;;;;6226281;28;20058;-66
2022/12/31 13:41:01;;;;;;;12.13;8.32;;;;;;;;;;6235895;28;20095;-65
2022/12/31 13:44:27;;;;;;;10.63;6.53;;;;;;;;;;6222884;28;20140;-64
2022/12/31 13:47:45;;;;;;;15.85;10.40;;;;;;;;;;6225703;28;20091;-66
2022/12/31 13:50:52;;;;;;;7.55;3.97;;;;;;;;;;6224883;28;20083;-64
2022/12/31 13:54:05;;;;;;;12.38;6.72;;;;;;;;;;6221936;28;20053;-64
2022/12/31 13:57:25;;;;;;;7.50;3.33;;;;;;;;;;6225892;28;20063;-64
2022/12/31 14:00:31;;;;;;;8.98;3.90;;;;;;;;;;6227122;28;20416;-64
2022/12/31 14:03:58;;;;;;;13.60;5.03;;;;;;;;;;6223773;28;20144;-62
2022/12/31 14:07:08;;;;;;;14.40;5.22;;;;;;;;;;6227056;28;20061;-65
2022/12/31 14:10:15;;;;;;;13.82;4.25;;;;;;;;;;6224108;28;20080;-63
2022/12/31 14:13:23;;;;;;;15.43;5.38;;;;;;;;;;6223847;28;20049;-65
2022/12/31 14:16:31;;;;;;;19.40;9.45;;;;;;;;;;6224385;28;20138;-63
2022/12/31 14:19:44;;;;;;;27.30;15.65;;;;;;;;;;6226136;28;20054;-63
2022/12/31 14:23:10;;;;;;;23.13;12.18;;;;;;;;;;6221153;28;20105;-63
2022/12/31 14:26:28;;;;;;;15.98;7.30;;;;;;;;;;6211252;28;20054;-64
2022/12/31 14:29:40;;;;;;;13.10;6.25;;;;;;;;;;6225826;28;20049;-63
2022/12/31 14:33:09;;;;;;;18.48;7.15;;;;;;;;;;6224839;28;20915;-63
2022/12/31 14:36:25;;;;;;;21.55;7.20;;;;;;;;;;6228971;28;20049;-63
2022/12/31 14:39:49;;;;;;;17.00;7.72;;;;;;;;;;6230483;28;20060;-64
2022/12/31 14:42:50;;;;;;;15.82;5.80;;;;;;;;;;6228174;28;20073;-64
2022/12/31 14:46:02;;;;;;;12.73;5.70;;;;;;;;;;6230123;28;20492;-63
2022/12/31 14:49:12;;;;;;;13.75;6.30;;;;;;;;;;6228467;28;20685;-63
2022/12/31 14:52:29;;;;;;;16.48;7.82;;;;;;;;;;6226436;28;20048;-63
2022/12/31 14:55:36;;;;;;;15.85;6.68;;;;;;;;;;6229160;28;20045;-64
2022/12/31 14:58:40;;;;;;;18.27;6.97;;;;;;;;;;6228290;28;20057;-63
2022/12/31 15:01:44;;;;;;;19.75;9.32;;;;;;;;;;6229294;28;20057;-63
2022/12/31 15:04:45;;;;;;;15.88;6.75;;;;;;;;;;6223962;28;20065;-63
2022/12/31 15:07:46;;;;;;;15.43;6.77;;;;;;;;;;6226347;28;20045;-63
2022/12/31 15:11:13;;;;;;;17.88;7.18;;;;;;;;;;6228513;28;20068;-61
2022/12/31 15:14:41;;;;;;;14.88;6.47;;;;;;;;;;6227455;28;20539;-62
2022/12/31 15:18:36;;;;;;;27.60;11.10;;;;;;;;;;6234555;28;20065;-64
2022/12/31 15:21:52;;;;;;;37.25;20.30;;;;;;;;;;6207209;28;20061;-62
2022/12/31 15:24:52;;;;;;;38.53;15.68;;;;;;;;;;6230926;28;20091;-62
2022/12/31 15:27:55;;;;;;;42.30;26.55;;;;;;;;;;6230406;28;20045;-61
2022/12/31 15:31:03;;;;;;;27.48;14.15;;;;;;;;;;6231872;28;20519;-61
2022/12/31 15:34:06;;;;;;;18.60;9.48;;;;;;;;;;6226290;28;20049;-61
2022/12/31 15:37:26;;;;;;;19.10;9.70;;;;;;;;;;6230802;28;20056;-61
2022/12/31 15:40:28;;;;;;;16.77;7.85;;;;;;;;;;6232079;28;20041;-62
2022/12/31 15:43:50;;;;;;;14.97;8.73;;;;;;;;;;6227592;28;20042;-61
2022/12/31 15:46:59;;;;;;;15.48;8.20;;;;;;;;;;6227628;28;20287;-62
2022/12/31 15:50:06;;;;;;;17.13;9.82;;;;;;;;;;6231425;28;20107;-61
2022/12/31 15:53:25;;;;;;;16.83;7.90;;;;;;;;;;6226040;28;20057;-61
2022/12/31 15:56:32;;;;;;;14.15;6.45;;;;;;;;;;6225543;28;20049;-61
2022/12/31 15:59:33;;;;;;;14.25;6.65;;;;;;;;;;6226320;28;20057;-61
2022/12/31 16:02:34;;;;;;;29.73;17.77;;;;;;;;;;6222454;28;20065;-62
2022/12/31 16:05:35;;;;;;;17.30;8.50;;;;;;;;;;6228032;28;20057;-64
2022/12/31 16:08:36;;;;;;;17.23;8.98;;;;;;;;;;6228087;28;20576;-61
2022/12/31 16:11:40;;;;;;;19.57;9.13;;;;;;;;;;6230854;28;20124;-61
2022/12/31 16:14:49;;;;;;;24.20;12.48;;;;;;;;;;6226393;28;20492;-61
2022/12/31 16:18:04;;;;;;;19.27;10.18;;;;;;;;;;6230187;28;20778;-61
2022/12/31 16:21:22;;;;;;;18.30;8.85;;;;;;;;;;6229192;28;20080;-63
2022/12/31 16:24:31;;;;;;;26.88;13.65;;;;;;;;;;6226192;28;20037;-61
2022/12/31 16:27:34;;;;;;;18.73;8.73;;;;;;;;;;6231467;28;20041;-62
2022/12/31 16:30:35;;;;;;;28.35;13.18;;;;;;;;;;6229414;28;20049;-61
2022/12/31 16:33:36;;;;;;;25.10;10.02;;;;;;;;;;6224964;28;20068;-61
2022/12/31 16:36:37;;;;;;;22.40;9.77;;;;;;;;;;6225646;28;20076;-63
2022/12/31 16:39:54;;;;;;;29.08;14.35;;;;;;;;;;6228247;28;20905;-61
2022/12/31 16:42:57;;;;;;;25.30;11.77;;;;;;;;;;6225649;28;20051;-61
2022/12/31 16:46:15;;;;;;;28.90;14.13;;;;;;;;;;6242496;28;20060;-61
2022/12/31 16:49:20;;;;;;;37.25;14.57;;;;;;;;;;6231496;28;20115;-62
2022/12/31 16:52:31;;;;;;;28.95;13.20;;;;;;;;;;6229125;28;20421;-63
2022/12/31 16:55:33;;;;;;;29.30;12.25;;;;;;;;;;6230037;28;20054;-62
2022/12/31 16:58:46;;;;;;;23.63;10.77;;;;;;;;;;6228729;28;20057;-62
2022/12/31 17:01:48;;;;;;;;;;;;;;;;;;6230707;28;20115;-61
2022/12/31 17:04:51;;;;;;;23.25;11.07;;;;;;;;;;6225752;28;20016;-60
2022/12/31 17:07:53;;;;;;;31.45;15.60;;;;;;;;;;6229599;28;20072;-61
2022/12/31 17:10:55;;;;;;;29.13;12.35;;;;;;;;;;6229824;28;20834;-63
2022/12/31 17:14:12;;;;;;;24.85;11.27;;;;;;;;;;6225313;28;20045;-62
2022/12/31 17:17:20;;;;;;;30.00;12.40;;;;;;;;;;6228312;28;20049;-62
2022/12/31 17:20:28;;;;;;;79.97;35.03;;;;;;;;;;6230042;28;20049;-64
2022/12/31 17:23:33;;;;;;;89.57;42.25;;;;;;;;;;6224555;28;20049;-61
2022/12/31 17:26:35;;;;;;;35.35;16.73;;;;;;;;;;6227184;28;20240;-60
2022/12/31 17:29:36;;;;;;;33.00;12.75;;;;;;;;;;6228349;28;20455;-60
2022/12/31 17:32:38;;;;;;;28.58;12.60;;;;;;;;;;6227489;28;20071;-59
2022/12/31 17:35:42;;;;;;;34.50;15.57;;;;;;;;;;6227959;28;20128;-61
2022/12/31 17:38:43;;;;;;;48.40;22.75;;;;;;;;;;6228993;28;20065;-63
2022/12/31 17:41:45;;;;;;;44.53;23.88;;;;;;;;;;6230659;28;20194;-61
2022/12/31 17:44:46;;;;;;;37.42;16.23;;;;;;;;;;6223201;28;20496;-63
2022/12/31 17:47:49;;;;;;;37.17;15.57;;;;;;;;;;6228472;28;20056;-63
2022/12/31 17:51:00;;;;;;;29.92;11.98;;;;;;;;;;6228146;28;20060;-63
2022/12/31 17:54:01;;;;;;;34.60;13.93;;;;;;;;;;6224574;28;20539;-62
2022/12/31 17:57:02;;;;;;;24.55;10.40;;;;;;;;;;6228707;28;20053;-63
2022/12/31 18:00:05;;;;;;;32.80;15.35;;;;;;;;;;6228397;28;20107;-62
2022/12/31 18:03:05;;;;;;;33.92;14.18;;;;;;;;;;6224730;28;20551;-63
2022/12/31 18:06:08;;;;;;;27.92;14.10;;;;;;;;;;6227712;28;20049;-62
2022/12/31 18:09:10;;;;;;;29.48;14.75;;;;;;;;;;6232046;28;20053;-63
2022/12/31 18:12:12;;;;;;;27.77;12.23;;;;;;;;;;6232392;28;20042;-63
2022/12/31 18:15:19;;;;;;;26.17;11.52;;;;;;;;;;6227421;28;20629;-63
2022/12/31 18:18:21;;;;;;;24.13;9.77;;;;;;;;;;6231111;28;20072;-62
2022/12/31 18:21:27;;;;;;;22.92;9.57;;;;;;;;;;6232848;28;20049;-63
2022/12/31 18:24:27;;;;;;;22.02;10.00;;;;;;;;;;6228964;28;20060;-63
2022/12/31 18:27:29;;;;;;;20.25;8.60;;;;;;;;;;6229714;28;20050;-63
2022/12/31 18:30:30;;;;;;;19.43;10.43;;;;;;;;;;6231944;28;20136;-63
2022/12/31 18:33:30;;;;;;;22.50;8.93;;;;;;;;;;6227097;28;20076;-63
2022/12/31 18:36:31;;;;;;;21.77;10.70;;;;;;;;;;6231405;28;20041;-62
2022/12/31 18:39:32;;;;;;;30.42;14.73;;;;;;;;;;6230428;28;20061;-62
2022/12/31 18:42:32;;;;;;;25.08;11.55;;;;;;;;;;6228915;28;20052;-62
2022/12/31 18:45:33;;;;;;;21.70;11.95;;;;;;;;;;6228874;28;20157;-61